sensor_id;sensor_type;location;lat;lon;timestamp;pressure;altitude;pressure_sealevel;temperature;humidity
80620;BME280;69979;53.682;-2.690;2023-06-22T00:00:36;101454.68;;;20.54;38.51
80620;BME280;69979;53.682;-2.690;2023-06-22T00:03:01;101454.73;;;20.78;38.05
80620;BME280;69979;53.682;-2.690;2023-06-22T00:05:26;101453.77;;;20.88;37.77
80620;BME280;69979;53.682;-2.690;2023-06-22T00:07:52;101450.72;;;20.97;37.07
80620;BME280;69979;53.682;-2.690;2023-06-22T00:10:17;101451.45;;;19.94;38.60
80620;BME280;69979;53.682;-2.690;2023-06-22T00:12:42;101451.54;;;19.37;40.15
80620;BME280;69979;53.682;-2.690;2023-06-22T00:15:08;101456.65;;;18.98;41.22
80620;BME280;69979;53.682;-2.690;2023-06-22T00:17:33;101463.15;;;18.11;42.30
80620;BME280;69979;53.682;-2.690;2023-06-22T00:19:59;101465.64;;;18.60;41.52
80620;BME280;69979;53.682;-2.690;2023-06-22T00:22:24;101466.60;;;18.74;41.30
80620;BME280;69979;53.682;-2.690;2023-06-22T00:24:49;101467.23;;;19.00;41.38
80620;BME280;69979;53.682;-2.690;2023-06-22T00:27:15;101465.00;;;19.26;40.99
80620;BME280;69979;53.682;-2.690;2023-06-22T00:29:40;101464.66;;;19.29;40.19
80620;BME280;69979;53.682;-2.690;2023-06-22T00:32:06;101465.26;;;19.71;39.62
80620;BME280;69979;53.682;-2.690;2023-06-22T00:34:31;101464.87;;;19.81;39.33
80620;BME280;69979;53.682;-2.690;2023-06-22T00:36:56;101466.61;;;19.88;38.89
80620;BME280;69979;53.682;-2.690;2023-06-22T00:39:22;101469.86;;;20.14;38.78
80620;BME280;69979;53.682;-2.690;2023-06-22T00:41:47;101466.43;;;20.10;38.41
80620;BME280;69979;53.682;-2.690;2023-06-22T00:44:12;101468.93;;;20.28;38.12
80620;BME280;69979;53.682;-2.690;2023-06-22T00:46:38;101472.15;;;20.51;37.87
80620;BME280;69979;53.682;-2.690;2023-06-22T00:49:03;101468.53;;;20.43;38.31
80620;BME280;69979;53.682;-2.690;2023-06-22T00:51:29;101473.99;;;20.37;37.57
80620;BME280;69979;53.682;-2.690;2023-06-22T00:53:54;101476.19;;;20.61;37.59
80620;BME280;69979;53.682;-2.690;2023-06-22T00:56:20;101472.44;;;20.75;37.30
80620;BME280;69979;53.682;-2.690;2023-06-22T00:58:45;101470.72;;;20.58;37.50
80620;BME280;69979;53.682;-2.690;2023-06-22T01:01:10;101470.29;;;20.59;37.58
80620;BME280;69979;53.682;-2.690;2023-06-22T01:03:36;101469.18;;;20.64;37.39
80620;BME280;69979;53.682;-2.690;2023-06-22T01:06:07;101469.32;;;20.57;37.57
80620;BME280;69979;53.682;-2.690;2023-06-22T01:08:33;101466.93;;;20.48;37.78
80620;BME280;69979;53.682;-2.690;2023-06-22T01:10:57;101465.83;;;20.51;37.69
80620;BME280;69979;53.682;-2.690;2023-06-22T01:13:27;101463.08;;;20.96;37.16
80620;BME280;69979;53.682;-2.690;2023-06-22T01:15:45;101464.26;;;20.74;37.16
80620;BME280;69979;53.682;-2.690;2023-06-22T01:18:08;101467.85;;;20.69;37.34
80620;BME280;69979;53.682;-2.690;2023-06-22T01:20:34;101467.91;;;20.51;37.43
80620;BME280;69979;53.682;-2.690;2023-06-22T01:23:09;101468.91;;;20.71;37.21
80620;BME280;69979;53.682;-2.690;2023-06-22T01:25:31;101471.88;;;20.54;37.35
80620;BME280;69979;53.682;-2.690;2023-06-22T01:27:58;101472.35;;;20.59;37.29
80620;BME280;69979;53.682;-2.690;2023-06-22T01:30:16;101472.82;;;20.53;37.30
80620;BME280;69979;53.682;-2.690;2023-06-22T01:32:40;101474.17;;;20.59;37.13
80620;BME280;69979;53.682;-2.690;2023-06-22T01:35:08;101477.65;;;20.42;37.38
80620;BME280;69979;53.682;-2.690;2023-06-22T01:37:32;101476.09;;;20.28;37.56
80620;BME280;69979;53.682;-2.690;2023-06-22T01:39:57;101481.94;;;20.45;37.76
80620;BME280;69979;53.682;-2.690;2023-06-22T01:42:23;101483.39;;;19.89;38.02
80620;BME280;69979;53.682;-2.690;2023-06-22T01:44:47;101483.23;;;19.55;38.92
80620;BME280;69979;53.682;-2.690;2023-06-22T01:47:14;101488.37;;;18.46;40.87
80620;BME280;69979;53.682;-2.690;2023-06-22T01:49:38;101486.22;;;19.22;39.85
80620;BME280;69979;53.682;-2.690;2023-06-22T01:52:04;101494.12;;;18.14;40.90
80620;BME280;69979;53.682;-2.690;2023-06-22T01:54:30;101496.56;;;18.05;41.55
80620;BME280;69979;53.682;-2.690;2023-06-22T01:56:54;101496.90;;;18.85;40.73
80620;BME280;69979;53.682;-2.690;2023-06-22T01:59:25;101499.50;;;18.96;40.44
80620;BME280;69979;53.682;-2.690;2023-06-22T02:01:52;101499.61;;;18.81;40.68
80620;BME280;69979;53.682;-2.690;2023-06-22T02:04:16;101499.19;;;18.14;41.81
80620;BME280;69979;53.682;-2.690;2023-06-22T02:06:38;101503.77;;;18.75;40.86
80620;BME280;69979;53.682;-2.690;2023-06-22T02:09:05;101503.58;;;18.60;41.08
80620;BME280;69979;53.682;-2.690;2023-06-22T02:11:28;101508.01;;;19.14;39.97
80620;BME280;69979;53.682;-2.690;2023-06-22T02:13:52;101506.28;;;19.33;39.58
80620;BME280;69979;53.682;-2.690;2023-06-22T02:16:18;101506.50;;;19.38;39.50
80620;BME280;69979;53.682;-2.690;2023-06-22T02:18:46;101509.32;;;18.18;41.36
80620;BME280;69979;53.682;-2.690;2023-06-22T02:21:08;101514.19;;;18.93;40.50
80620;BME280;69979;53.682;-2.690;2023-06-22T02:23:33;101509.59;;;19.51;40.19
80620;BME280;69979;53.682;-2.690;2023-06-22T02:25:59;101509.02;;;19.64;39.36
80620;BME280;69979;53.682;-2.690;2023-06-22T02:28:24;101506.63;;;19.67;38.97
80620;BME280;69979;53.682;-2.690;2023-06-22T02:30:50;101507.95;;;19.85;39.29
80620;BME280;69979;53.682;-2.690;2023-06-22T02:33:15;101514.45;;;19.80;39.17
80620;BME280;69979;53.682;-2.690;2023-06-22T02:35:41;101516.63;;;19.92;39.26
80620;BME280;69979;53.682;-2.690;2023-06-22T02:38:06;101515.37;;;19.87;39.51
80620;BME280;69979;53.682;-2.690;2023-06-22T02:40:31;101514.68;;;19.77;39.42
80620;BME280;69979;53.682;-2.690;2023-06-22T02:42:57;101515.84;;;19.89;39.25
80620;BME280;69979;53.682;-2.690;2023-06-22T02:45:22;101519.45;;;19.71;39.84
80620;BME280;69979;53.682;-2.690;2023-06-22T02:47:48;101521.09;;;20.14;39.50
80620;BME280;69979;53.682;-2.690;2023-06-22T02:50:13;101522.36;;;20.04;39.87
80620;BME280;69979;53.682;-2.690;2023-06-22T02:52:38;101530.12;;;18.95;41.16
80620;BME280;69979;53.682;-2.690;2023-06-22T02:55:04;101529.21;;;19.28;41.03
80620;BME280;69979;53.682;-2.690;2023-06-22T02:57:30;101528.30;;;19.84;40.19
80620;BME280;69979;53.682;-2.690;2023-06-22T02:59:54;101527.40;;;19.98;39.91
80620;BME280;69979;53.682;-2.690;2023-06-22T03:02:20;101527.93;;;19.84;39.91
80620;BME280;69979;53.682;-2.690;2023-06-22T03:04:45;101526.06;;;20.08;39.42
80620;BME280;69979;53.682;-2.690;2023-06-22T03:07:10;101525.58;;;20.02;39.56
80620;BME280;69979;53.682;-2.690;2023-06-22T03:09:36;101526.54;;;20.14;39.41
80620;BME280;69979;53.682;-2.690;2023-06-22T03:12:01;101530.50;;;20.00;39.53
80620;BME280;69979;53.682;-2.690;2023-06-22T03:14:27;101535.84;;;19.29;40.59
80620;BME280;69979;53.682;-2.690;2023-06-22T03:16:52;101532.71;;;19.94;39.99
80620;BME280;69979;53.682;-2.690;2023-06-22T03:19:18;101537.38;;;20.01;39.54
80620;BME280;69979;53.682;-2.690;2023-06-22T03:21:43;101539.13;;;20.09;39.47
80620;BME280;69979;53.682;-2.690;2023-06-22T03:24:08;101535.74;;;20.32;39.25
80620;BME280;69979;53.682;-2.690;2023-06-22T03:26:34;101534.68;;;19.61;40.42
80620;BME280;69979;53.682;-2.690;2023-06-22T03:28:59;101539.30;;;19.39;40.92
80620;BME280;69979;53.682;-2.690;2023-06-22T03:31:24;101539.30;;;19.65;41.70
80620;BME280;69979;53.682;-2.690;2023-06-22T03:33:50;101541.19;;;19.46;41.51
80620;BME280;69979;53.682;-2.690;2023-06-22T03:36:15;101539.93;;;19.66;41.57
80620;BME280;69979;53.682;-2.690;2023-06-22T03:38:40;101539.43;;;20.15;40.20
80620;BME280;69979;53.682;-2.690;2023-06-22T03:41:06;101537.29;;;20.10;40.03
80620;BME280;69979;53.682;-2.690;2023-06-22T03:43:31;101538.58;;;20.30;39.96
80620;BME280;69979;53.682;-2.690;2023-06-22T03:45:57;101534.19;;;19.82;40.41
80620;BME280;69979;53.682;-2.690;2023-06-22T03:48:27;101534.31;;;20.27;40.33
80620;BME280;69979;53.682;-2.690;2023-06-22T03:50:47;101537.28;;;20.42;39.63
80620;BME280;69979;53.682;-2.690;2023-06-22T03:53:13;101536.94;;;20.73;39.79
80620;BME280;69979;53.682;-2.690;2023-06-22T03:55:42;101532.29;;;20.51;39.87
80620;BME280;69979;53.682;-2.690;2023-06-22T03:58:03;101530.61;;;20.64;39.54
80620;BME280;69979;53.682;-2.690;2023-06-22T04:00:29;101529.77;;;20.67;39.42
80620;BME280;69979;53.682;-2.690;2023-06-22T04:02:54;101530.11;;;20.82;39.62
80620;BME280;69979;53.682;-2.690;2023-06-22T04:05:20;101528.99;;;20.67;39.37
80620;BME280;69979;53.682;-2.690;2023-06-22T04:07:45;101531.78;;;20.61;39.43
80620;BME280;69979;53.682;-2.690;2023-06-22T04:10:10;101535.10;;;20.62;39.49
80620;BME280;69979;53.682;-2.690;2023-06-22T04:12:36;101545.51;;;19.55;41.79
80620;BME280;69979;53.682;-2.690;2023-06-22T04:15:01;101539.98;;;19.90;40.92
80620;BME280;69979;53.682;-2.690;2023-06-22T04:17:27;101543.16;;;19.35;41.89
80620;BME280;69979;53.682;-2.690;2023-06-22T04:19:52;101540.90;;;19.94;41.56
80620;BME280;69979;53.682;-2.690;2023-06-22T04:22:18;101541.16;;;19.85;41.40
80620;BME280;69979;53.682;-2.690;2023-06-22T04:24:43;101539.71;;;20.18;41.01
80620;BME280;69979;53.682;-2.690;2023-06-22T04:27:08;101540.96;;;20.33;40.97
80620;BME280;69979;53.682;-2.690;2023-06-22T04:29:34;101543.53;;;19.69;41.86
80620;BME280;69979;53.682;-2.690;2023-06-22T04:31:59;101548.65;;;18.90;43.81
80620;BME280;69979;53.682;-2.690;2023-06-22T04:34:24;101550.32;;;19.54;42.93
80620;BME280;69979;53.682;-2.690;2023-06-22T04:36:50;101546.45;;;20.24;42.23
80620;BME280;69979;53.682;-2.690;2023-06-22T04:39:15;101546.79;;;19.57;42.89
80620;BME280;69979;53.682;-2.690;2023-06-22T04:41:41;101546.36;;;19.78;43.02
80620;BME280;69979;53.682;-2.690;2023-06-22T04:44:06;101541.77;;;19.72;43.66
80620;BME280;69979;53.682;-2.690;2023-06-22T04:46:31;101547.96;;;19.12;44.64
80620;BME280;69979;53.682;-2.690;2023-06-22T04:48:56;101544.83;;;19.64;43.82
80620;BME280;69979;53.682;-2.690;2023-06-22T04:51:22;101539.68;;;20.30;42.77
80620;BME280;69979;53.682;-2.690;2023-06-22T04:53:47;101543.55;;;20.15;42.32
80620;BME280;69979;53.682;-2.690;2023-06-22T04:56:12;101546.50;;;20.35;42.07
80620;BME280;69979;53.682;-2.690;2023-06-22T04:58:38;101549.25;;;20.15;42.10
80620;BME280;69979;53.682;-2.690;2023-06-22T05:01:03;101549.66;;;20.86;41.58
80620;BME280;69979;53.682;-2.690;2023-06-22T05:03:29;101550.22;;;20.10;42.17
80620;BME280;69979;53.682;-2.690;2023-06-22T05:05:54;101548.34;;;20.15;42.16
80620;BME280;69979;53.682;-2.690;2023-06-22T05:08:19;101550.10;;;20.43;41.81
80620;BME280;69979;53.682;-2.690;2023-06-22T05:10:45;101548.61;;;20.71;41.48
80620;BME280;69979;53.682;-2.690;2023-06-22T05:13:10;101552.79;;;20.88;41.18
80620;BME280;69979;53.682;-2.690;2023-06-22T05:15:36;101549.60;;;20.93;41.36
80620;BME280;69979;53.682;-2.690;2023-06-22T05:18:01;101548.03;;;20.88;41.14
80620;BME280;69979;53.682;-2.690;2023-06-22T05:20:26;101548.84;;;20.65;41.75
80620;BME280;69979;53.682;-2.690;2023-06-22T05:22:52;101556.06;;;20.68;41.72
80620;BME280;69979;53.682;-2.690;2023-06-22T05:25:17;101554.66;;;20.91;41.37
80620;BME280;69979;53.682;-2.690;2023-06-22T05:27:42;101552.43;;;21.10;41.26
80620;BME280;69979;53.682;-2.690;2023-06-22T05:30:09;101553.16;;;21.24;40.89
80620;BME280;69979;53.682;-2.690;2023-06-22T05:32:33;101554.90;;;21.06;40.64
80620;BME280;69979;53.682;-2.690;2023-06-22T05:34:58;101554.64;;;21.65;40.54
80620;BME280;69979;53.682;-2.690;2023-06-22T05:37:24;101558.04;;;21.26;40.72
80620;BME280;69979;53.682;-2.690;2023-06-22T05:39:49;101559.71;;;20.59;41.91
80620;BME280;69979;53.682;-2.690;2023-06-22T05:42:14;101563.27;;;21.27;41.16
80620;BME280;69979;53.682;-2.690;2023-06-22T05:44:40;101567.54;;;21.40;41.38
80620;BME280;69979;53.682;-2.690;2023-06-22T05:47:05;101562.15;;;20.66;41.74
80620;BME280;69979;53.682;-2.690;2023-06-22T05:49:30;101559.99;;;19.50;44.46
80620;BME280;69979;53.682;-2.690;2023-06-22T05:51:56;101557.53;;;20.55;42.70
80620;BME280;69979;53.682;-2.690;2023-06-22T05:54:21;101559.29;;;20.66;42.66
80620;BME280;69979;53.682;-2.690;2023-06-22T05:56:46;101562.34;;;20.13;42.63
80620;BME280;69979;53.682;-2.690;2023-06-22T05:59:12;101564.01;;;20.21;42.51
80620;BME280;69979;53.682;-2.690;2023-06-22T06:01:37;101562.19;;;20.74;41.52
80620;BME280;69979;53.682;-2.690;2023-06-22T06:04:03;101561.58;;;20.80;41.62
80620;BME280;69979;53.682;-2.690;2023-06-22T06:06:28;101556.86;;;20.78;41.66
80620;BME280;69979;53.682;-2.690;2023-06-22T06:08:53;101554.65;;;21.01;41.62
80620;BME280;69979;53.682;-2.690;2023-06-22T06:11:19;101552.02;;;19.41;43.50
80620;BME280;69979;53.682;-2.690;2023-06-22T06:13:44;101554.54;;;20.53;42.13
80620;BME280;69979;53.682;-2.690;2023-06-22T06:16:09;101554.37;;;20.94;41.67
80620;BME280;69979;53.682;-2.690;2023-06-22T06:18:35;101554.30;;;20.38;42.24
80620;BME280;69979;53.682;-2.690;2023-06-22T06:21:00;101551.58;;;20.74;42.04
80620;BME280;69979;53.682;-2.690;2023-06-22T06:23:25;101553.98;;;20.69;42.05
80620;BME280;69979;53.682;-2.690;2023-06-22T06:25:50;101553.82;;;21.03;41.61
80620;BME280;69979;53.682;-2.690;2023-06-22T06:28:15;101553.33;;;20.67;41.90
80620;BME280;69979;53.682;-2.690;2023-06-22T06:30:41;101552.52;;;20.92;41.19
80620;BME280;69979;53.682;-2.690;2023-06-22T06:33:06;101558.58;;;20.48;41.74
80620;BME280;69979;53.682;-2.690;2023-06-22T06:35:32;101561.39;;;20.55;41.86
80620;BME280;69979;53.682;-2.690;2023-06-22T06:37:57;101558.35;;;20.25;43.26
80620;BME280;69979;53.682;-2.690;2023-06-22T06:40:22;101555.59;;;20.29;42.37
80620;BME280;69979;53.682;-2.690;2023-06-22T06:42:48;101557.36;;;20.07;43.25
80620;BME280;69979;53.682;-2.690;2023-06-22T06:45:17;101557.84;;;19.89;43.08
80620;BME280;69979;53.682;-2.690;2023-06-22T06:47:38;101561.48;;;19.67;43.91
80620;BME280;69979;53.682;-2.690;2023-06-22T06:50:05;101561.34;;;20.37;42.28
80620;BME280;69979;53.682;-2.690;2023-06-22T06:52:29;101557.92;;;21.27;41.27
80620;BME280;69979;53.682;-2.690;2023-06-22T06:54:54;101560.43;;;21.62;40.39
80620;BME280;69979;53.682;-2.690;2023-06-22T06:57:20;101564.34;;;21.77;40.56
80620;BME280;69979;53.682;-2.690;2023-06-22T06:59:45;101569.01;;;21.18;40.36
80620;BME280;69979;53.682;-2.690;2023-06-22T07:02:10;101576.94;;;20.41;41.95
80620;BME280;69979;53.682;-2.690;2023-06-22T07:04:36;101581.25;;;21.22;41.25
80620;BME280;69979;53.682;-2.690;2023-06-22T07:07:02;101581.28;;;20.78;40.66
80620;BME280;69979;53.682;-2.690;2023-06-22T07:09:26;101582.12;;;21.20;39.59
80620;BME280;69979;53.682;-2.690;2023-06-22T07:11:51;101585.12;;;21.86;37.97
80620;BME280;69979;53.682;-2.690;2023-06-22T07:14:16;101588.18;;;21.57;38.38
80620;BME280;69979;53.682;-2.690;2023-06-22T07:16:42;101587.78;;;21.38;38.43
80620;BME280;69979;53.682;-2.690;2023-06-22T07:19:07;101584.57;;;22.09;37.70
80620;BME280;69979;53.682;-2.690;2023-06-22T07:21:32;101586.34;;;22.44;37.29
80620;BME280;69979;53.682;-2.690;2023-06-22T07:23:58;101586.45;;;21.84;37.73
80620;BME280;69979;53.682;-2.690;2023-06-22T07:26:23;101592.22;;;21.00;38.20
80620;BME280;69979;53.682;-2.690;2023-06-22T07:28:48;101594.64;;;21.98;37.39
80620;BME280;69979;53.682;-2.690;2023-06-22T07:31:14;101596.12;;;21.83;37.53
80620;BME280;69979;53.682;-2.690;2023-06-22T07:33:39;101600.09;;;21.59;36.99
80620;BME280;69979;53.682;-2.690;2023-06-22T07:36:04;101601.25;;;21.42;37.06
80620;BME280;69979;53.682;-2.690;2023-06-22T07:38:30;101597.78;;;22.12;36.14
80620;BME280;69979;53.682;-2.690;2023-06-22T07:40:55;101599.36;;;22.49;35.50
80620;BME280;69979;53.682;-2.690;2023-06-22T07:43:20;101601.25;;;22.44;35.88
80620;BME280;69979;53.682;-2.690;2023-06-22T07:45:48;101601.26;;;22.43;33.93
80620;BME280;69979;53.682;-2.690;2023-06-22T07:48:11;101606.95;;;22.35;33.09
80620;BME280;69979;53.682;-2.690;2023-06-22T07:50:36;101605.96;;;22.61;33.14
80620;BME280;69979;53.682;-2.690;2023-06-22T07:53:02;101608.62;;;22.58;34.67
80620;BME280;69979;53.682;-2.690;2023-06-22T07:55:27;101609.62;;;22.44;33.37
80620;BME280;69979;53.682;-2.690;2023-06-22T07:57:53;101608.81;;;22.30;33.31
80620;BME280;69979;53.682;-2.690;2023-06-22T08:00:19;101607.31;;;22.59;32.96
80620;BME280;69979;53.682;-2.690;2023-06-22T08:02:46;101608.85;;;22.75;32.70
80620;BME280;69979;53.682;-2.690;2023-06-22T08:05:09;101608.28;;;22.87;32.86
80620;BME280;69979;53.682;-2.690;2023-06-22T08:07:35;101607.17;;;22.71;33.53
80620;BME280;69979;53.682;-2.690;2023-06-22T08:10:00;101604.58;;;22.14;34.41
80620;BME280;69979;53.682;-2.690;2023-06-22T08:12:25;101603.54;;;22.47;32.70
80620;BME280;69979;53.682;-2.690;2023-06-22T08:14:50;101603.01;;;22.33;32.90
80620;BME280;69979;53.682;-2.690;2023-06-22T08:17:16;101607.09;;;22.91;32.55
80620;BME280;69979;53.682;-2.690;2023-06-22T08:19:41;101608.82;;;21.85;32.99
80620;BME280;69979;53.682;-2.690;2023-06-22T08:22:06;101608.41;;;22.67;32.17
80620;BME280;69979;53.682;-2.690;2023-06-22T08:24:32;101612.98;;;23.41;32.02
80620;BME280;69979;53.682;-2.690;2023-06-22T08:26:57;101617.15;;;23.35;31.96
80620;BME280;69979;53.682;-2.690;2023-06-22T08:29:22;101610.48;;;22.67;32.54
80620;BME280;69979;53.682;-2.690;2023-06-22T08:31:48;101608.13;;;22.82;32.94
80620;BME280;69979;53.682;-2.690;2023-06-22T08:34:13;101604.38;;;21.69;34.21
80620;BME280;69979;53.682;-2.690;2023-06-22T08:36:38;101608.77;;;23.18;32.66
80620;BME280;69979;53.682;-2.690;2023-06-22T08:39:04;101610.54;;;23.72;32.70
80620;BME280;69979;53.682;-2.690;2023-06-22T08:41:29;101609.80;;;22.82;34.47
80620;BME280;69979;53.682;-2.690;2023-06-22T08:43:55;101609.44;;;23.35;33.87
80620;BME280;69979;53.682;-2.690;2023-06-22T08:46:20;101608.27;;;23.30;33.43
80620;BME280;69979;53.682;-2.690;2023-06-22T08:48:45;101610.61;;;23.24;33.50
80620;BME280;69979;53.682;-2.690;2023-06-22T08:51:11;101608.38;;;23.39;32.48
80620;BME280;69979;53.682;-2.690;2023-06-22T08:53:36;101610.99;;;23.21;32.49
80620;BME280;69979;53.682;-2.690;2023-06-22T08:56:01;101612.28;;;23.26;32.24
80620;BME280;69979;53.682;-2.690;2023-06-22T08:58:26;101614.54;;;23.30;32.07
80620;BME280;69979;53.682;-2.690;2023-06-22T09:00:52;101618.52;;;24.09;30.54
80620;BME280;69979;53.682;-2.690;2023-06-22T09:03:17;101615.59;;;23.53;31.25
80620;BME280;69979;53.682;-2.690;2023-06-22T09:05:42;101617.67;;;23.42;31.07
80620;BME280;69979;53.682;-2.690;2023-06-22T09:08:07;101619.73;;;23.84;30.45
80620;BME280;69979;53.682;-2.690;2023-06-22T09:10:33;101618.71;;;22.95;31.34
80620;BME280;69979;53.682;-2.690;2023-06-22T09:12:58;101619.38;;;22.92;32.13
80620;BME280;69979;53.682;-2.690;2023-06-22T09:15:23;101618.55;;;22.27;32.31
80620;BME280;69979;53.682;-2.690;2023-06-22T09:17:48;101624.32;;;22.95;31.60
80620;BME280;69979;53.682;-2.690;2023-06-22T09:20:14;101629.90;;;23.45;31.29
80620;BME280;69979;53.682;-2.690;2023-06-22T09:22:39;101629.35;;;23.24;31.63
80620;BME280;69979;53.682;-2.690;2023-06-22T09:25:05;101629.38;;;24.13;30.42
80620;BME280;69979;53.682;-2.690;2023-06-22T09:27:30;101622.09;;;24.22;30.12
80620;BME280;69979;53.682;-2.690;2023-06-22T09:29:55;101624.20;;;23.21;33.51
80620;BME280;69979;53.682;-2.690;2023-06-22T09:32:20;101622.47;;;24.48;30.88
80620;BME280;69979;53.682;-2.690;2023-06-22T09:34:46;101625.82;;;24.21;31.11
80620;BME280;69979;53.682;-2.690;2023-06-22T09:37:12;101621.86;;;23.00;32.25
80620;BME280;69979;53.682;-2.690;2023-06-22T09:39:36;101617.08;;;24.05;30.32
80620;BME280;69979;53.682;-2.690;2023-06-22T09:42:03;101613.38;;;22.30;32.48
80620;BME280;69979;53.682;-2.690;2023-06-22T09:44:27;101622.33;;;23.11;31.92
80620;BME280;69979;53.682;-2.690;2023-06-22T09:46:52;101621.07;;;23.37;31.10
80620;BME280;69979;53.682;-2.690;2023-06-22T09:49:18;101624.51;;;23.59;31.92
80620;BME280;69979;53.682;-2.690;2023-06-22T09:51:43;101628.34;;;21.42;34.27
80620;BME280;69979;53.682;-2.690;2023-06-22T09:54:08;101625.77;;;20.86;36.26
80620;BME280;69979;53.682;-2.690;2023-06-22T09:56:34;101625.18;;;22.19;35.27
80620;BME280;69979;53.682;-2.690;2023-06-22T09:58:59;101627.89;;;21.92;34.52
80620;BME280;69979;53.682;-2.690;2023-06-22T10:01:24;101627.90;;;22.90;32.88
80620;BME280;69979;53.682;-2.690;2023-06-22T10:03:50;101627.11;;;24.18;31.72
80620;BME280;69979;53.682;-2.690;2023-06-22T10:06:15;101620.92;;;22.72;33.52
80620;BME280;69979;53.682;-2.690;2023-06-22T10:08:41;101620.52;;;21.07;35.57
80620;BME280;69979;53.682;-2.690;2023-06-22T10:11:05;101616.29;;;22.52;33.37
80620;BME280;69979;53.682;-2.690;2023-06-22T10:13:30;101624.00;;;23.26;32.31
80620;BME280;69979;53.682;-2.690;2023-06-22T10:15:56;101627.36;;;22.97;32.40
80620;BME280;69979;53.682;-2.690;2023-06-22T10:18:21;101623.74;;;23.81;31.13
80620;BME280;69979;53.682;-2.690;2023-06-22T10:20:49;101622.27;;;24.55;30.09
80620;BME280;69979;53.682;-2.690;2023-06-22T10:23:12;101619.17;;;22.31;32.77
80620;BME280;69979;53.682;-2.690;2023-06-22T10:25:37;101622.87;;;22.43;33.60
80620;BME280;69979;53.682;-2.690;2023-06-22T10:28:03;101624.48;;;23.65;32.13
80620;BME280;69979;53.682;-2.690;2023-06-22T10:30:28;101626.86;;;23.43;31.47
80620;BME280;69979;53.682;-2.690;2023-06-22T10:32:53;101625.79;;;22.50;32.77
80620;BME280;69979;53.682;-2.690;2023-06-22T10:35:18;101624.00;;;22.53;33.46
80620;BME280;69979;53.682;-2.690;2023-06-22T10:37:43;101627.93;;;22.82;33.11
80620;BME280;69979;53.682;-2.690;2023-06-22T10:40:09;101627.40;;;23.11;32.40
80620;BME280;69979;53.682;-2.690;2023-06-22T10:42:34;101625.61;;;21.54;34.13
80620;BME280;69979;53.682;-2.690;2023-06-22T10:44:59;101628.69;;;19.86;36.94
80620;BME280;69979;53.682;-2.690;2023-06-22T10:47:25;101623.01;;;20.99;35.88
80620;BME280;69979;53.682;-2.690;2023-06-22T10:49:50;101622.51;;;21.60;35.36
80620;BME280;69979;53.682;-2.690;2023-06-22T10:52:15;101620.42;;;22.21;33.32
80620;BME280;69979;53.682;-2.690;2023-06-22T10:54:41;101619.35;;;23.45;32.89
80620;BME280;69979;53.682;-2.690;2023-06-22T10:57:06;101615.28;;;22.60;33.00
80620;BME280;69979;53.682;-2.690;2023-06-22T10:59:31;101615.98;;;21.52;35.76
80620;BME280;69979;53.682;-2.690;2023-06-22T11:01:56;101621.05;;;21.90;34.37
80620;BME280;69979;53.682;-2.690;2023-06-22T11:04:21;101614.13;;;23.17;32.60
80620;BME280;69979;53.682;-2.690;2023-06-22T11:06:48;101622.89;;;23.68;31.74
80620;BME280;69979;53.682;-2.690;2023-06-22T11:09:12;101618.66;;;22.58;32.85
80620;BME280;69979;53.682;-2.690;2023-06-22T11:11:37;101623.25;;;22.57;32.66
80620;BME280;69979;53.682;-2.690;2023-06-22T11:14:03;101625.97;;;21.32;34.74
80620;BME280;69979;53.682;-2.690;2023-06-22T11:16:28;101620.97;;;22.78;32.80
80620;BME280;69979;53.682;-2.690;2023-06-22T11:18:54;101622.75;;;22.39;34.03
80620;BME280;69979;53.682;-2.690;2023-06-22T11:21:19;101623.45;;;20.61;36.12
80620;BME280;69979;53.682;-2.690;2023-06-22T11:23:44;101624.01;;;19.92;37.78
80620;BME280;69979;53.682;-2.690;2023-06-22T11:26:09;101626.85;;;21.02;36.22
80620;BME280;69979;53.682;-2.690;2023-06-22T11:28:35;101629.14;;;20.28;37.32
80620;BME280;69979;53.682;-2.690;2023-06-22T11:31:00;101630.03;;;19.86;37.87
80620;BME280;69979;53.682;-2.690;2023-06-22T11:33:25;101628.04;;;20.64;36.80
80620;BME280;69979;53.682;-2.690;2023-06-22T11:35:51;101626.64;;;21.77;34.36
80620;BME280;69979;53.682;-2.690;2023-06-22T11:38:16;101624.79;;;22.48;34.18
80620;BME280;69979;53.682;-2.690;2023-06-22T11:40:41;101626.50;;;21.90;33.88
80620;BME280;69979;53.682;-2.690;2023-06-22T11:43:07;101620.67;;;20.81;35.55
80620;BME280;69979;53.682;-2.690;2023-06-22T11:45:32;101619.28;;;21.50;36.20
80620;BME280;69979;53.682;-2.690;2023-06-22T11:47:57;101618.83;;;22.15;34.08
80620;BME280;69979;53.682;-2.690;2023-06-22T11:50:23;101620.53;;;22.94;34.47
80620;BME280;69979;53.682;-2.690;2023-06-22T11:52:48;101624.19;;;23.26;32.45
80620;BME280;69979;53.682;-2.690;2023-06-22T11:55:13;101618.68;;;22.33;33.45
80620;BME280;69979;53.682;-2.690;2023-06-22T11:57:54;101614.75;;;22.90;34.31
80620;BME280;69979;53.682;-2.690;2023-06-22T12:00:05;101622.33;;;23.14;32.79
80620;BME280;69979;53.682;-2.690;2023-06-22T12:02:30;101624.12;;;24.11;32.01
80620;BME280;69979;53.682;-2.690;2023-06-22T12:04:55;101617.46;;;24.24;30.05
80620;BME280;69979;53.682;-2.690;2023-06-22T12:07:21;101618.99;;;23.09;32.39
80620;BME280;69979;53.682;-2.690;2023-06-22T12:09:46;101615.16;;;22.45;34.79
80620;BME280;69979;53.682;-2.690;2023-06-22T12:12:12;101618.45;;;19.96;36.54
80620;BME280;69979;53.682;-2.690;2023-06-22T12:14:37;101620.40;;;21.54;35.98
80620;BME280;69979;53.682;-2.690;2023-06-22T12:17:02;101619.20;;;23.22;34.34
80620;BME280;69979;53.682;-2.690;2023-06-22T12:19:27;101619.45;;;23.57;31.55
80620;BME280;69979;53.682;-2.690;2023-06-22T12:21:52;101618.73;;;23.52;32.33
80620;BME280;69979;53.682;-2.690;2023-06-22T12:24:18;101616.40;;;21.08;35.77
80620;BME280;69979;53.682;-2.690;2023-06-22T12:26:43;101619.75;;;21.89;36.80
80620;BME280;69979;53.682;-2.690;2023-06-22T12:29:08;101622.60;;;23.26;33.23